Time;durP1;ratioP1;P1;durP2;ratioP2;P2;SDS_P1;SDS_P2;PMS_P1;PMS_P2;Temp;Humidity;BMP_temperature;BMP_pressure;BME280_temperature;BME280_humidity;BME280_pressure;Samples;Min_cycle;Max_cycle;Signal;HPM_P1;HPM_P2
2020/12/26 00:01:20;;;;;;;10.57;5.68;;;;;;;5.87;65.45;99852.56;4325106;33;32284;-83
2020/12/26 00:03:49;;;;;;;7.82;5.75;;;;;;;5.77;65.43;99856.28;4325503;33;33292;-83
2020/12/26 00:06:18;;;;;;;10.57;5.53;;;;;;;5.55;65.63;99865.53;4336406;33;32354;-83
2020/12/26 00:08:46;;;;;;;7.68;5.20;;;;;;;5.35;66.32;99869.44;4324014;33;34525;-83
2020/12/26 00:11:17;;;;;;;9.60;5.18;;;;;;;5.45;66.28;99864.87;4341898;33;33243;-83
2020/12/26 00:13:49;;;;;;;9.60;5.60;;;;;;;5.60;65.55;99861.94;4338897;33;33817;-83
2020/12/26 00:16:18;;;;;;;8.25;5.22;;;;;;;5.83;64.69;99850.91;4344569;33;33325;-82
2020/12/26 00:18:46;;;;;;;9.05;5.75;;;;;;;5.32;66.07;99861.66;4335516;33;33932;-83
2020/12/26 00:21:15;;;;;;;8.45;5.70;;;;;;;5.36;66.01;99871.19;4319672;33;33029;-83
2020/12/26 00:23:43;;;;;;;9.85;5.97;;;;;;;5.48;65.19;99867.44;4339455;33;34297;-84
2020/12/26 00:26:14;;;;;;;9.60;6.28;;;;;;;5.75;64.49;99875.59;4344774;33;34472;-83
2020/12/26 00:28:42;;;;;;;9.40;6.03;;;;;;;5.84;63.89;99873.59;4340153;33;33060;-83
2020/12/26 00:31:15;;;;;;;8.93;5.90;;;;;;;5.77;64.40;99876.38;4327266;33;33003;-83
2020/12/26 00:33:42;;;;;;;8.40;5.55;;;;;;;5.69;64.38;99897.50;4337292;33;34588;-83
2020/12/26 00:36:09;;;;;;;9.55;5.80;;;;;;;5.70;64.36;99896.63;4342285;33;32629;-83
2020/12/26 00:38:37;;;;;;;12.07;5.93;;;;;;;5.44;65.10;99901.56;4338689;33;32732;-83
2020/12/26 00:41:04;;;;;;;10.10;5.47;;;;;;;5.88;63.71;99896.19;4314833;33;33684;-83
2020/12/26 00:43:32;;;;;;;9.00;5.25;;;;;;;5.76;63.44;99916.59;4318339;33;33787;-83
2020/12/26 00:46:00;;;;;;;7.62;5.40;;;;;;;5.81;63.42;99920.84;4342961;33;33532;-84
2020/12/26 00:48:27;;;;;;;8.30;5.53;;;;;;;5.63;63.93;99931.72;4321660;33;32997;-83
2020/12/26 00:50:57;;;;;;;11.23;6.20;;;;;;;5.43;64.84;99947.00;4330335;33;32942;-83
2020/12/26 00:53:25;;;;;;;11.12;5.80;;;;;;;5.62;64.28;99948.34;4329038;33;33148;-83
2020/12/26 00:55:52;;;;;;;8.60;5.53;;;;;;;5.46;64.81;99950.41;4331948;33;34219;-83
2020/12/26 00:58:20;;;;;;;9.40;6.10;;;;;;;5.52;64.31;99957.28;4318433;33;33314;-83
2020/12/26 01:00:48;;;;;;;8.55;5.65;;;;;;;5.50;64.56;99961.66;4313776;33;33622;-83
2020/12/26 01:03:19;;;;;;;9.07;5.50;;;;;;;5.68;64.40;99956.06;4341468;33;32419;-83
2020/12/26 01:05:46;;;;;;;7.22;4.82;;;;;;;5.74;63.96;99950.66;4325849;33;32939;-83
2020/12/26 01:08:14;;;;;;;8.55;5.93;;;;;;;5.46;64.64;99953.03;4339470;33;33605;-83
2020/12/26 01:10:41;;;;;;;7.78;5.30;;;;;;;5.53;64.59;99957.25;4342050;33;32872;-83
2020/12/26 01:13:08;;;;;;;9.80;5.93;;;;;;;5.38;64.95;99958.41;4321498;33;32982;-83
2020/12/26 01:15:37;;;;;;;8.77;5.28;;;;;;;5.42;65.14;99968.84;4332447;33;32659;-83
2020/12/26 01:18:07;;;;;;;9.18;5.93;;;;;;;5.59;64.46;99967.56;4327160;33;33501;-84
2020/12/26 01:20:34;;;;;;;9.45;5.40;;;;;;;5.62;64.03;99971.91;4325534;33;32198;-83
2020/12/26 01:23:01;;;;;;;8.32;4.75;;;;;;;5.95;62.83;99964.25;4308063;33;33228;-83
2020/12/26 01:25:29;;;;;;;8.25;5.32;;;;;;;5.65;63.76;99961.38;4344456;33;33055;-84
2020/12/26 01:27:56;;;;;;;8.25;5.57;;;;;;;5.77;63.42;99966.34;4320349;33;32850;-84
2020/12/26 01:30:23;;;;;;;9.80;6.25;;;;;;;5.60;64.35;99971.06;4334324;33;32636;-84
2020/12/26 01:32:51;;;;;;;8.43;5.62;;;;;;;5.53;64.73;99966.84;4332449;33;34203;-84
2020/12/26 01:35:18;;;;;;;10.52;6.60;;;;;;;5.21;65.70;99964.88;4340816;33;33511;-84
2020/12/26 01:37:46;;;;;;;7.72;5.03;;;;;;;5.64;64.26;99954.38;4323442;33;33609;-84
2020/12/26 01:40:13;;;;;;;8.40;4.90;;;;;;;5.45;64.86;99967.00;4324412;33;33642;-83
2020/12/26 01:42:40;;;;;;;11.30;5.35;;;;;;;5.49;64.46;99968.66;4334777;33;33534;-83
2020/12/26 01:45:10;;;;;;;8.52;5.47;;;;;;;5.86;63.10;99966.12;4317461;33;32242;-83
2020/12/26 01:47:38;;;;;;;10.80;5.70;;;;;;;5.85;63.33;99974.91;4344538;33;32810;-83
2020/12/26 01:50:16;;;;;;;9.38;5.12;;;;;;;5.80;63.61;99978.53;4328058;33;34225;-83
2020/12/26 01:52:44;;;;;;;8.50;5.30;;;;;;;5.56;64.79;99979.91;4329564;33;34822;-83
2020/12/26 01:55:14;;;;;;;8.88;5.57;;;;;;;5.27;65.66;99986.56;4320145;33;32962;-84
2020/12/26 01:57:52;;;;;;;8.75;5.45;;;;;;;5.57;64.92;99985.09;4336690;33;34313;-84
2020/12/26 02:00:20;;;;;;;10.65;4.82;;;;;;;5.57;64.06;99992.09;4327138;33;33218;-84
2020/12/26 02:02:49;;;;;;;10.25;5.85;;;;;;;5.42;64.68;99995.88;4335350;33;33669;-84
2020/12/26 02:05:17;;;;;;;10.35;5.93;;;;;;;5.22;65.34;99993.66;4336083;33;33777;-84
2020/12/26 02:07:46;;;;;;;7.45;5.00;;;;;;;4.92;66.44;99992.44;4324380;33;33734;-84
2020/12/26 02:10:14;;;;;;;8.32;5.22;;;;;;;5.47;64.43;99987.94;4328016;33;34317;-84
2020/12/26 02:12:41;;;;;;;10.02;5.65;;;;;;;5.43;64.69;99983.66;4320048;33;33221;-83
2020/12/26 02:15:13;;;;;;;11.60;5.82;;;;;;;5.30;65.47;99989.12;4339088;33;33817;-83
2020/12/26 02:17:41;;;;;;;7.70;5.43;;;;;;;5.16;66.00;99980.66;4337836;33;34491;-84
2020/12/26 02:20:08;;;;;;;12.02;6.47;;;;;;;5.39;64.61;99986.31;4317715;33;32188;-83
2020/12/26 02:22:36;;;;;;;9.00;5.43;;;;;;;5.32;65.44;99989.97;4340394;33;34229;-83
2020/12/26 02:25:04;;;;;;;7.70;4.93;;;;;;;4.96;66.33;99977.56;4323815;33;33560;-83
2020/12/26 02:27:31;;;;;;;9.25;5.05;;;;;;;5.17;65.53;99974.53;4319850;33;33817;-83
2020/12/26 02:29:59;;;;;;;9.52;5.12;;;;;;;5.26;65.01;99970.87;4332913;33;33133;-83
2020/12/26 02:32:28;;;;;;;9.20;5.75;;;;;;;5.09;66.08;99972.06;4335534;33;32944;-83
2020/12/26 02:34:55;;;;;;;8.95;5.35;;;;;;;5.10;66.16;99973.78;4343656;33;33856;-83
2020/12/26 02:37:22;;;;;;;8.30;4.57;;;;;;;5.01;65.87;99984.44;4331412;33;33371;-83
2020/12/26 02:39:51;;;;;;;8.15;4.68;;;;;;;5.20;65.72;99994.56;4338702;33;34327;-83
2020/12/26 02:42:19;;;;;;;7.93;4.82;;;;;;;5.27;64.82;99990.91;4326470;33;33454;-83
2020/12/26 02:44:46;;;;;;;9.25;5.00;;;;;;;5.55;63.97;99983.38;4327272;33;34386;-83
2020/12/26 02:47:14;;;;;;;7.75;4.82;;;;;;;5.66;63.31;99981.44;4314780;33;32235;-83
2020/12/26 02:49:41;;;;;;;6.70;4.70;;;;;;;5.70;62.73;99971.72;4328373;33;33243;-83
2020/12/26 02:52:09;;;;;;;6.32;3.80;;;;;;;5.60;62.89;99973.69;4326699;33;32935;-83
2020/12/26 02:54:37;;;;;;;7.72;4.55;;;;;;;5.51;62.88;99973.91;4342972;33;33409;-84
2020/12/26 02:57:04;;;;;;;5.07;3.65;;;;;;;5.22;64.57;99970.09;4340409;33;33411;-83
2020/12/26 02:59:32;;;;;;;7.80;4.45;;;;;;;5.31;63.68;99982.97;4343974;33;33317;-83
2020/12/26 03:02:00;;;;;;;7.22;4.60;;;;;;;4.94;64.78;99980.22;4336269;33;33516;-83
2020/12/26 03:04:27;;;;;;;8.50;5.05;;;;;;;4.77;66.20;99980.50;4345602;33;34679;-83
2020/12/26 03:06:56;;;;;;;7.15;4.28;;;;;;;4.74;66.10;99980.53;4342359;33;33370;-83
2020/12/26 03:09:26;;;;;;;5.15;4.15;;;;;;;5.03;64.86;99977.44;4321288;33;32262;-83
2020/12/26 03:11:54;;;;;;;6.50;3.72;;;;;;;5.18;63.91;99981.50;4337335;33;33459;-84
2020/12/26 03:14:21;;;;;;;8.73;4.32;;;;;;;4.45;66.57;99978.41;4345397;33;34734;-83
2020/12/26 03:16:48;;;;;;;7.05;4.62;;;;;;;4.26;67.35;99982.19;4342943;33;32739;-84
2020/12/26 03:19:16;;;;;;;6.40;4.22;;;;;;;4.52;66.17;99976.56;4344558;33;33254;-83
2020/12/26 03:21:43;;;;;;;6.72;4.55;;;;;;;4.83;64.46;99975.12;4343094;33;32978;-83
2020/12/26 03:24:11;;;;;;;6.40;3.83;;;;;;;4.58;65.38;99984.31;4328778;33;33452;-83
2020/12/26 03:26:38;;;;;;;6.40;4.07;;;;;;;4.41;66.04;99999.38;4328235;33;34804;-83
2020/12/26 03:29:05;;;;;;;5.82;3.85;;;;;;;4.58;64.88;99994.75;4337010;33;33369;-83
2020/12/26 03:31:33;;;;;;;4.65;3.72;;;;;;;4.79;64.18;99994.41;4336484;33;33801;-83
2020/12/26 03:34:00;;;;;;;9.50;4.53;;;;;;;4.70;65.03;100005.03;4320641;33;33778;-83
2020/12/26 03:36:28;;;;;;;8.23;4.30;;;;;;;4.72;64.71;100016.34;4339798;33;33743;-82
2020/12/26 03:38:58;;;;;;;8.13;4.10;;;;;;;4.90;63.63;100011.69;4339589;33;33245;-82
2020/12/26 03:41:25;;;;;;;5.82;3.83;;;;;;;4.81;64.17;100016.19;4340669;33;34648;-82
2020/12/26 03:43:56;;;;;;;6.10;3.72;;;;;;;5.10;62.76;100014.81;4312642;33;32499;-82
2020/12/26 03:46:24;;;;;;;7.10;4.20;;;;;;;5.42;60.78;100010.75;4338699;33;33591;-82
2020/12/26 03:48:51;;;;;;;7.75;3.50;;;;;;;5.22;61.63;100014.59;4357358;32;33266;-82
2020/12/26 03:51:31;;;;;;;5.93;3.10;;;;;;;5.24;60.86;100012.81;4343023;33;33402;-82
2020/12/26 03:53:58;;;;;;;7.12;3.22;;;;;;;5.22;60.85;100004.13;4338553;33;34682;-82
2020/12/26 03:56:25;;;;;;;3.92;3.08;;;;;;;5.10;61.43;100014.81;4328953;33;33335;-82
2020/12/26 03:58:53;;;;;;;4.60;3.20;;;;;;;5.44;60.11;100022.03;4323861;33;33845;-84
2020/12/26 04:01:20;;;;;;;6.45;3.42;;;;;;;5.23;60.82;100026.78;4338242;33;32731;-84
2020/12/26 04:03:47;;;;;;;5.90;2.80;;;;;;;4.92;61.96;100028.22;4336553;33;33303;-84
2020/12/26 04:06:14;;;;;;;5.22;3.30;;;;;;;4.77;62.38;100027.56;4318523;33;32742;-85
2020/12/26 04:08:42;;;;;;;5.18;3.30;;;;;;;4.65;63.02;100033.00;4344417;33;34066;-84
2020/12/26 04:11:10;;;;;;;3.85;2.85;;;;;;;4.60;62.74;100026.97;4334020;33;33071;-84
2020/12/26 04:13:37;;;;;;;3.25;2.58;;;;;;;4.92;61.89;100020.37;4344768;33;33587;-84
2020/12/26 04:16:04;;;;;;;3.17;2.37;;;;;;;5.14;60.02;100016.47;4333833;33;33803;-84
2020/12/26 04:18:32;;;;;;;2.10;1.75;;;;;;;5.34;58.70;100011.72;4331517;33;34355;-84
2020/12/26 04:21:01;;;;;;;4.00;2.33;;;;;;;4.92;59.21;100004.66;4327957;33;33200;-83
2020/12/26 04:23:29;;;;;;;3.50;2.37;;;;;;;4.88;59.88;99999.47;4342503;33;32666;-83
2020/12/26 04:25:57;;;;;;;4.68;2.53;;;;;;;4.85;nan;99994.31;4326160;33;34576;-83
2020/12/26 04:28:26;;;;;;;3.62;2.28;;;;;;;4.85;59.62;99996.94;4317951;33;33366;-83
2020/12/26 04:30:54;;;;;;;4.50;2.80;;;;;;;4.90;58.56;99996.84;4328646;33;33923;-83
2020/12/26 04:33:22;;;;;;;3.40;2.37;;;;;;;5.01;58.31;99988.81;4332277;33;33937;-83
2020/12/26 04:35:50;;;;;;;2.65;1.98;;;;;;;5.04;57.75;99987.00;4338902;33;33797;-83
2020/12/26 04:38:17;;;;;;;2.72;2.10;;;;;;;4.87;58.32;99989.91;4326708;33;32644;-82
2020/12/26 04:40:45;;;;;;;4.70;2.58;;;;;;;4.84;58.16;99996.94;4310379;33;32374;-83
2020/12/26 04:43:13;;;;;;;2.70;1.90;;;;;;;4.57;58.61;99999.13;4325188;33;33571;-84
2020/12/26 04:45:40;;;;;;;5.18;2.40;;;;;;;4.72;58.20;100016.34;4318410;33;34235;-84
2020/12/26 04:48:17;;;;;;;3.15;2.17;;;;;;;4.48;60.18;100025.44;4324473;33;33214;-83
2020/12/26 04:50:47;;;;;;;4.12;2.20;;;;;;;4.64;58.69;100028.66;4332198;33;33710;-83
2020/12/26 04:53:18;;;;;;;2.80;2.03;;;;;;;4.23;60.27;100039.75;4341777;33;33863;-83
2020/12/26 04:55:48;;;;;;;4.32;2.50;;;;;;;4.27;60.08;100036.19;4337968;33;33917;-83
2020/12/26 04:58:17;;;;;;;3.80;2.45;;;;;;;4.07;61.16;100044.31;4337739;33;34028;-83
2020/12/26 05:00:45;;;;;;;3.80;2.25;;;;;;;4.03;61.00;100053.94;4336400;33;33928;-84
2020/12/26 05:03:17;;;;;;;4.65;2.37;;;;;;;4.05;60.67;100056.53;4338018;33;33757;-84
2020/12/26 05:05:45;;;;;;;2.08;1.85;;;;;;;4.12;60.88;100064.25;4333120;33;33845;-84
2020/12/26 05:08:14;;;;;;;3.47;2.20;;;;;;;3.94;61.59;100058.41;4322960;33;33621;-84
2020/12/26 05:10:43;;;;;;;3.12;2.03;;;;;;;4.08;60.96;100073.06;4308248;33;34343;-84
2020/12/26 05:13:12;;;;;;;4.15;2.30;;;;;;;4.21;60.29;100080.72;4332792;33;33750;-84
2020/12/26 05:15:39;;;;;;;3.08;1.83;;;;;;;4.37;59.75;100079.62;4342222;33;33724;-85
2020/12/26 05:18:08;;;;;;;3.97;2.20;;;;;;;4.48;58.84;100085.56;4356854;32;33029;-84
2020/12/26 05:20:37;;;;;;;2.97;2.15;;;;;;;4.55;58.59;100084.56;4336557;33;33022;-84
2020/12/26 05:23:13;;;;;;;5.20;2.87;;;;;;;4.28;59.55;100096.31;4325212;33;33830;-84
2020/12/26 05:25:50;;;;;;;5.72;2.85;;;;;;;4.01;61.12;100096.66;4342235;33;32919;-84
2020/12/26 05:28:22;;;;;;;5.20;2.80;;;;;;;4.30;59.39;100099.75;4317787;33;31987;-84
2020/12/26 05:30:51;;;;;;;3.83;2.70;;;;;;;4.21;60.12;100093.78;4331930;33;33811;-84
2020/12/26 05:33:19;;;;;;;4.75;2.58;;;;;;;4.50;59.37;100096.00;4316260;33;33102;-84
2020/12/26 05:35:51;;;;;;;2.35;1.80;;;;;;;4.40;59.82;100115.31;4322125;33;33207;-84
2020/12/26 05:38:19;;;;;;;;;;;;;;;4.47;59.61;100117.84;4311551;33;33859;-84
2020/12/26 05:41:00;;;;;;;3.78;2.15;;;;;;;4.71;58.29;100111.41;4328229;33;33680;-83
2020/12/26 05:43:30;;;;;;;2.65;1.52;;;;;;;4.23;59.91;100105.09;4340460;33;32741;-83
2020/12/26 05:45:58;;;;;;;3.15;2.10;;;;;;;4.38;59.77;100107.50;4329884;33;33460;-83
2020/12/26 05:48:27;;;;;;;3.80;1.73;;;;;;;4.42;59.46;100114.44;4323089;33;33303;-83
2020/12/26 05:50:59;;;;;;;2.50;1.87;;;;;;;4.92;56.94;100109.31;4318847;33;33572;-84
2020/12/26 05:53:27;;;;;;;2.75;1.70;;;;;;;4.59;58.38;100124.63;4338052;33;33489;-83
2020/12/26 05:55:55;;;;;;;2.90;1.70;;;;;;;4.90;55.87;100127.69;4339706;33;33615;-83
2020/12/26 05:58:24;;;;;;;2.08;1.58;;;;;;;4.71;57.08;100145.41;4322033;33;32957;-83
2020/12/26 06:00:59;;;;;;;2.75;1.40;;;;;;;4.25;58.53;100146.00;4335141;33;33646;-83
2020/12/26 06:03:31;;;;;;;2.20;1.52;;;;;;;4.61;56.66;100142.06;4323473;33;33381;-83
2020/12/26 06:06:03;;;;;;;2.28;1.50;;;;;;;4.52;56.94;100151.78;4322746;33;34574;-83
2020/12/26 06:08:31;;;;;;;1.73;1.58;;;;;;;4.59;56.46;100159.50;4335776;33;33093;-83
2020/12/26 06:11:00;;;;;;;3.25;1.95;;;;;;;4.59;56.54;100169.09;4316006;33;32588;-83
2020/12/26 06:13:30;;;;;;;2.53;1.50;;;;;;;4.63;56.19;100178.63;4341739;33;32889;-83
2020/12/26 06:16:07;;;;;;;3.37;1.15;;;;;;;4.80;55.42;100187.13;4331471;33;33670;-84
2020/12/26 06:18:42;;;;;;;2.85;1.80;;;;;;;4.63;57.13;100186.47;4344109;33;33220;-84
2020/12/26 06:21:10;;;;;;;3.28;2.10;;;;;;;4.63;56.53;100186.47;4325717;33;33168;-84
2020/12/26 06:23:39;;;;;;;4.15;2.62;;;;;;;4.16;58.81;100185.31;4339847;33;34423;-84
2020/12/26 06:26:06;;;;;;;4.57;2.40;;;;;;;4.39;58.47;100198.12;4343707;33;33505;-84
2020/12/26 06:28:35;;;;;;;2.87;1.98;;;;;;;4.26;58.03;100200.00;4338301;33;33761;-84
2020/12/26 06:31:09;;;;;;;3.72;2.08;;;;;;;4.69;56.19;100207.31;4338792;33;33855;-84
2020/12/26 06:33:42;;;;;;;4.15;2.12;;;;;;;4.41;57.43;100219.00;4329100;33;33998;-83
2020/12/26 06:36:10;;;;;;;2.72;2.20;;;;;;;4.42;56.90;100228.59;4317424;33;32664;-83
2020/12/26 06:38:39;;;;;;;2.45;1.87;;;;;;;4.24;57.99;100232.28;4343404;33;32833;-83
2020/12/26 06:41:13;;;;;;;4.43;1.15;;;;;;;4.63;55.30;100233.56;4325542;33;33870;-83
2020/12/26 06:43:46;;;;;;;1.83;1.20;;;;;;;4.53;55.55;100242.41;4330485;33;32937;-84
2020/12/26 06:46:14;;;;;;;2.08;1.37;;;;;;;4.57;55.71;100251.97;4328230;33;34351;-83
2020/12/26 06:48:42;;;;;;;3.15;1.55;;;;;;;4.34;56.34;100252.22;4343082;33;33444;-84
2020/12/26 06:51:26;;;;;;;2.55;1.75;;;;;;;4.43;55.10;100262.56;4335445;33;33653;-83
2020/12/26 06:53:55;;;;;;;2.33;1.35;;;;;;;4.61;54.73;100264.13;4343505;33;34731;-83
2020/12/26 06:56:32;;;;;;;2.03;1.27;;;;;;;4.32;55.97;100260.09;4328729;33;33048;-83
2020/12/26 06:59:06;;;;;;;4.65;1.50;;;;;;;4.36;55.29;100271.34;4337424;33;33275;-82
2020/12/26 07:01:35;;;;;;;3.62;2.10;;;;;;;4.24;56.18;100269.75;4315407;33;32357;-82
2020/12/26 07:04:15;;;;;;;2.40;1.30;;;;;;;4.48;54.86;100268.63;4321265;33;33470;-82
2020/12/26 07:06:43;;;;;;;2.42;1.37;;;;;;;4.33;55.69;100277.50;4329211;33;33810;-83
2020/12/26 07:09:19;;;;;;;2.50;1.42;;;;;;;4.50;54.43;100279.91;4312446;33;32103;-83
2020/12/26 07:11:48;;;;;;;2.17;1.30;;;;;;;4.61;53.59;100282.41;4320325;33;33261;-83
2020/12/26 07:14:32;;;;;;;2.47;1.45;;;;;;;4.44;55.16;100289.59;4331443;33;33535;-83
2020/12/26 07:17:15;;;;;;;1.83;1.17;;;;;;;4.58;54.32;100283.31;4325453;33;33595;-83
2020/12/26 07:19:51;;;;;;;2.58;1.35;;;;;;;4.59;54.26;100290.25;4329946;33;33131;-83
2020/12/26 07:22:26;;;;;;;2.70;1.30;;;;;;;4.73;53.31;100277.03;4332467;33;33023;-83
2020/12/26 07:25:13;;;;;;;2.17;1.50;;;;;;;4.34;55.50;100292.28;4340938;33;34199;-83
2020/12/26 07:27:41;;;;;;;1.27;0.70;;;;;;;4.32;55.84;100286.22;4319885;33;33822;-83
2020/12/26 07:30:13;;;;;;;1.30;0.70;;;;;;;4.61;53.91;100285.91;4311222;33;32381;-83
2020/12/26 07:32:47;;;;;;;;;;;;;;;4.69;52.50;100288.41;4318243;33;32900;-83
2020/12/26 07:35:21;;;;;;;2.78;1.23;;;;;;;4.19;55.27;100299.44;4333297;33;33283;-83
2020/12/26 07:38:09;;;;;;;1.12;0.98;;;;;;;4.75;53.20;100301.44;4343138;33;33821;-83
2020/12/26 07:40:45;;;;;;;1.23;0.95;;;;;;;4.35;54.03;100291.41;4331261;33;33857;-83
2020/12/26 07:43:14;;;;;;;2.78;1.42;;;;;;;4.28;54.83;100294.97;4330518;33;32471;-84
2020/12/26 07:45:43;;;;;;;6.35;2.53;;;;;;;4.38;53.41;100300.97;4352539;32;33766;-83
2020/12/26 07:48:11;;;;;;;6.15;2.55;;;;;;;4.37;54.87;100289.66;4331200;33;36683;-83
2020/12/26 07:50:40;;;;;;;3.12;1.67;;;;;;;4.66;53.86;100278.00;4344431;32;32515;-84
2020/12/26 07:53:09;;;;;;;4.95;1.73;;;;;;;4.65;53.29;100278.84;4310344;33;32727;-83
2020/12/26 07:55:37;;;;;;;2.08;1.15;;;;;;;4.83;52.82;100281.25;4319459;33;33947;-83
2020/12/26 07:58:10;;;;;;;1.98;0.70;;;;;;;4.84;50.81;100292.59;4326694;33;34615;-83
2020/12/26 08:00:40;;;;;;;2.15;1.17;;;;;;;4.77;49.76;100293.56;4343437;32;33824;-83
2020/12/26 08:03:09;;;;;;;0.77;0.70;;;;;;;4.78;50.16;100301.37;4322933;33;34120;-83
2020/12/26 08:05:46;;;;;;;0.98;0.80;;;;;;;4.77;50.31;100302.28;4337119;33;33401;-83
2020/12/26 08:08:21;;;;;;;1.23;0.60;;;;;;;4.88;50.58;100302.13;4322755;33;33040;-83
2020/12/26 08:10:59;;;;;;;1.05;0.62;;;;;;;4.54;49.87;100307.75;4345257;32;33042;-83
2020/12/26 08:13:27;;;;;;;2.15;0.90;;;;;;;4.68;50.33;100310.22;4322517;33;34548;-83
2020/12/26 08:16:05;;;;;;;3.30;1.55;;;;;;;4.80;49.15;100307.47;4328998;33;33356;-83
2020/12/26 08:18:33;;;;;;;1.98;0.93;;;;;;;4.66;51.11;100298.94;4320497;33;33870;-83
2020/12/26 08:21:00;;;;;;;1.40;0.60;;;;;;;4.64;49.13;100295.44;4319506;33;32597;-83
2020/12/26 08:23:28;;;;;;;2.22;1.10;;;;;;;4.60;49.33;100293.75;4322573;33;33669;-83
2020/12/26 08:26:02;;;;;;;4.80;1.12;;;;;;;4.48;49.60;100302.59;4320927;33;32923;-83
2020/12/26 08:28:30;;;;;;;2.05;0.77;;;;;;;4.69;48.96;100319.78;4332749;33;33969;-83
2020/12/26 08:31:02;;;;;;;1.80;0.70;;;;;;;4.33;49.95;100339.38;4341072;33;33070;-83
2020/12/26 08:33:38;;;;;;;0.95;0.50;;;;;;;4.35;49.69;100348.91;4328801;33;32289;-83
2020/12/26 08:36:12;;;;;;;1.42;0.80;;;;;;;4.50;49.34;100363.59;4342984;32;33365;-83
2020/12/26 08:38:46;;;;;;;2.25;1.30;;;;;;;4.71;50.93;100366.88;4342262;32;33777;-82
2020/12/26 08:41:16;;;;;;;2.42;1.62;;;;;;;4.83;47.90;100372.81;4329141;33;32815;-84
2020/12/26 08:43:44;;;;;;;1.30;1.05;;;;;;;4.72;48.80;100390.41;4332397;33;32861;-83
2020/12/26 08:46:19;;;;;;;3.65;1.48;;;;;;;4.85;49.31;100384.16;4329004;33;32321;-84
2020/12/26 08:48:47;;;;;;;9.05;2.00;;;;;;;4.98;47.47;100397.94;4318523;33;33860;-83
2020/12/26 08:51:18;;;;;;;2.15;0.85;;;;;;;5.00;47.75;100400.56;4318059;33;33112;-83
2020/12/26 08:53:46;;;;;;;3.20;0.95;;;;;;;4.83;47.44;100404.22;4342672;32;33756;-83
2020/12/26 08:56:14;;;;;;;1.30;0.73;;;;;;;4.95;49.38;100398.00;4320781;33;33626;-83
2020/12/26 08:58:49;;;;;;;5.62;1.10;;;;;;;5.09;46.74;100400.47;4327469;33;33171;-83
2020/12/26 09:01:16;;;;;;;1.92;0.90;;;;;;;5.24;47.36;100416.00;4337528;33;32578;-84
2020/12/26 09:03:49;;;;;;;1.98;1.00;;;;;;;5.34;46.96;100417.59;4331163;33;34124;-83
2020/12/26 09:06:17;;;;;;;1.60;1.00;;;;;;;5.31;46.20;100417.63;4314419;33;34098;-84
2020/12/26 09:08:44;;;;;;;0.80;0.62;;;;;;;5.30;46.01;100418.53;4338111;33;33778;-84
2020/12/26 09:11:12;;;;;;;0.90;0.70;;;;;;;5.53;45.39;100413.00;4329527;33;32633;-84
2020/12/26 09:13:49;;;;;;;3.37;0.90;;;;;;;5.76;44.55;100410.06;4339005;33;32424;-84
2020/12/26 09:16:16;;;;;;;4.70;0.80;;;;;;;5.75;44.88;100405.72;4314632;33;33767;-83
2020/12/26 09:18:49;;;;;;;0.98;0.77;;;;;;;5.87;44.64;100394.19;4328915;33;32871;-83
2020/12/26 09:21:34;;;;;;;1.33;0.70;;;;;;;5.76;44.92;100388.25;4320310;33;33531;-83
2020/12/26 09:24:02;;;;;;;4.37;1.35;;;;;;;5.63;43.67;100383.16;4319660;33;32381;-83
2020/12/26 09:26:36;;;;;;;0.75;0.70;;;;;;;5.59;43.99;100384.09;4305069;33;34114;-83
2020/12/26 09:29:09;;;;;;;2.80;0.85;;;;;;;5.26;47.02;100388.03;4331717;33;32639;-84
2020/12/26 09:31:38;;;;;;;0.37;0.30;;;;;;;5.69;43.27;100392.69;4327814;33;31600;-84
2020/12/26 09:34:14;;;;;;;1.50;0.80;;;;;;;5.15;44.55;100389.91;4329458;33;33576;-86
2020/12/26 09:36:41;;;;;;;0.93;0.60;;;;;;;5.55;43.56;100382.41;4317053;33;36076;-85
2020/12/26 09:39:09;;;;;;;0.93;0.45;;;;;;;5.61;44.13;100381.47;4318070;33;32479;-84
2020/12/26 09:41:44;;;;;;;1.58;1.10;;;;;;;5.74;43.87;100361.16;4317810;33;32299;-89
2020/12/26 09:44:12;;;;;;;1.60;0.88;;;;;;;5.78;43.89;100355.00;4324166;33;32459;-85
2020/12/26 09:46:40;;;;;;;2.55;1.08;;;;;;;6.01;43.91;100346.81;4322631;33;32671;-84
2020/12/26 09:49:08;;;;;;;1.00;0.43;;;;;;;5.71;43.99;100358.63;4312554;33;32809;-84
2020/12/26 09:51:36;;;;;;;1.17;0.65;;;;;;;5.57;45.18;100370.16;4337512;33;32299;-84
2020/12/26 09:54:04;;;;;;;3.20;1.00;;;;;;;5.67;43.45;100375.28;4330985;33;33236;-84
2020/12/26 09:56:31;;;;;;;3.85;1.30;;;;;;;5.84;45.09;100376.75;4336739;33;34461;-84
2020/12/26 09:58:59;;;;;;;1.40;0.70;;;;;;;6.16;42.35;100396.37;4329544;33;33328;-84
2020/12/26 10:01:26;;;;;;;5.97;2.95;;;;;;;5.97;43.91;100387.06;4334407;33;33217;-84
2020/12/26 10:03:54;;;;;;;2.30;1.58;;;;;;;6.33;42.77;100383.84;4330725;33;33496;-84
2020/12/26 10:06:21;;;;;;;3.42;1.55;;;;;;;6.41;43.40;100395.09;4326646;33;34252;-84
2020/12/26 10:08:49;;;;;;;1.87;1.17;;;;;;;6.61;44.03;100380.75;4311846;33;32954;-85
2020/12/26 10:11:18;;;;;;;1.55;0.82;;;;;;;6.67;44.65;100385.87;4327465;33;33307;-84
2020/12/26 10:13:46;;;;;;;1.65;0.90;;;;;;;6.65;43.57;100399.03;4331236;33;34542;-85
2020/12/26 10:16:18;;;;;;;1.02;0.77;;;;;;;6.74;42.12;100416.37;4333017;32;32592;-84
2020/12/26 10:18:46;;;;;;;2.40;1.12;;;;;;;6.33;44.47;100428.44;4331136;33;34307;-85
2020/12/26 10:21:14;;;;;;;1.02;0.50;;;;;;;6.99;42.79;100427.28;4312761;33;32496;-84
2020/12/26 10:23:42;;;;;;;2.35;1.10;;;;;;;6.65;42.49;100434.91;4324903;33;33392;-85
2020/12/26 10:26:10;;;;;;;1.55;0.80;;;;;;;6.81;42.78;100439.00;4317138;33;33097;-84
2020/12/26 10:28:38;;;;;;;2.45;1.02;;;;;;;7.16;41.56;100421.69;4325435;33;34198;-84
2020/12/26 10:31:06;;;;;;;4.10;1.92;;;;;;;7.37;40.99;100412.53;4309129;33;32381;-84
2020/12/26 10:33:33;;;;;;;1.62;0.95;;;;;;;7.37;42.20;100410.75;4344133;32;32956;-84
2020/12/26 10:36:02;;;;;;;8.73;4.72;;;;;;;7.42;40.25;100413.28;4339216;33;33807;-84
2020/12/26 10:38:29;;;;;;;1.95;1.10;;;;;;;7.27;40.28;100413.63;4333668;33;34628;-84
2020/12/26 10:40:57;;;;;;;1.90;1.10;;;;;;;7.38;40.14;100417.75;4310307;33;32671;-84
2020/12/26 10:43:25;;;;;;;2.12;1.00;;;;;;;7.37;39.75;100416.00;4320018;33;32651;-84
2020/12/26 10:45:52;;;;;;;0.88;0.70;;;;;;;7.18;40.19;100410.28;4318322;33;33861;-84
2020/12/26 10:48:19;;;;;;;1.35;0.73;;;;;;;7.09;39.94;100410.44;4336875;33;32569;-84
2020/12/26 10:50:47;;;;;;;0.65;0.60;;;;;;;6.88;40.15;100411.75;4310908;33;32087;-84
2020/12/26 10:53:14;;;;;;;3.65;0.80;;;;;;;6.92;40.09;100402.03;4318915;33;33609;-84
2020/12/26 10:55:41;;;;;;;1.37;1.00;;;;;;;7.12;40.32;100404.25;4307493;33;33329;-84
2020/12/26 10:58:13;;;;;;;3.58;1.55;;;;;;;7.00;40.30;100400.13;4346380;32;32819;-84
2020/12/26 11:00:40;;;;;;;2.30;1.20;;;;;;;6.99;40.56;100392.28;4331011;33;33484;-84
2020/12/26 11:03:08;;;;;;;5.10;1.42;;;;;;;7.15;42.28;100393.69;4343276;32;33826;-85
2020/12/26 11:05:35;;;;;;;1.90;1.10;;;;;;;7.08;42.96;100392.13;4329681;33;32482;-84
2020/12/26 11:08:03;;;;;;;2.12;1.73;;;;;;;6.98;45.50;100398.41;4322812;33;33625;-84
2020/12/26 11:10:30;;;;;;;4.30;1.67;;;;;;;7.11;47.24;100405.16;4329795;33;32421;-85
2020/12/26 11:12:58;;;;;;;3.22;2.28;;;;;;;7.49;44.39;100408.75;4327121;33;33657;-85
2020/12/26 11:15:25;;;;;;;3.97;2.00;;;;;;;7.67;44.00;100414.47;4318364;33;32896;-83
2020/12/26 11:17:53;;;;;;;4.53;1.50;;;;;;;7.62;45.21;100415.50;4324983;33;33910;-85
2020/12/26 11:20:24;;;;;;;2.47;1.58;;;;;;;7.87;42.06;100421.91;4333671;33;33268;-85
2020/12/26 11:22:51;;;;;;;2.58;1.60;;;;;;;7.83;43.57;100419.41;4320427;33;33096;-85
2020/12/26 11:25:19;;;;;;;4.43;2.00;;;;;;;7.71;43.39;100428.44;4331455;33;34633;-85
2020/12/26 11:27:46;;;;;;;2.70;1.80;;;;;;;7.79;44.65;100423.87;4318275;33;34643;-84
2020/12/26 11:30:14;;;;;;;2.87;1.62;;;;;;;8.01;44.09;100418.12;4322556;33;34079;-85
2020/12/26 11:32:41;;;;;;;4.15;1.75;;;;;;;7.65;44.50;100416.28;4326134;33;33065;-85
2020/12/26 11:35:09;;;;;;;7.05;3.72;;;;;;;7.55;44.26;100409.50;4335906;33;32526;-85
2020/12/26 11:37:36;;;;;;;3.12;1.42;;;;;;;7.07;46.04;100406.09;4329821;33;32723;-85
2020/12/26 11:40:03;;;;;;;7.03;3.00;;;;;;;7.38;44.11;100412.47;4331998;33;33813;-85
2020/12/26 11:42:31;;;;;;;5.85;1.98;;;;;;;7.34;43.71;100407.31;4319515;33;32840;-86
2020/12/26 11:44:58;;;;;;;1.65;1.55;;;;;;;7.16;43.44;100400.69;4331164;33;33143;-86
2020/12/26 11:47:26;;;;;;;3.12;0.98;;;;;;;6.93;43.71;100393.25;4337855;33;33948;-85